createdAt,value
2022-12-11T00:02:06.387Z,83.10
2022-12-11T00:04:35.471Z,82.90
2022-12-11T00:07:04.396Z,83.60
2022-12-11T00:09:33.431Z,82.90
2022-12-11T00:12:03.552Z,82.90
2022-12-11T00:14:33.092Z,82.80
2022-12-11T00:17:02.133Z,82.80
2022-12-11T00:19:31.274Z,82.80
2022-12-11T00:22:00.589Z,82.60
2022-12-11T00:24:29.525Z,82.50
2022-12-11T00:26:58.385Z,82.50
2022-12-11T00:29:27.354Z,82.50
2022-12-11T00:31:56.289Z,82.70
2022-12-11T00:34:25.179Z,82.40
2022-12-11T00:36:54.262Z,82.30
2022-12-11T00:39:23.233Z,82.20
2022-12-11T00:41:52.169Z,84.20
2022-12-11T00:44:21.154Z,85.30
2022-12-11T00:46:50.076Z,86.30
2022-12-11T00:49:19.473Z,85.40
2022-12-11T00:51:48.353Z,84.60
2022-12-11T00:54:17.495Z,84.70
2022-12-11T00:56:46.481Z,85.50
2022-12-11T00:59:15.384Z,84.90
2022-12-11T01:01:44.890Z,84.60
2022-12-11T01:04:13.969Z,84.40
2022-12-11T01:06:42.927Z,84.80
2022-12-11T01:09:30.185Z,84.80
2022-12-11T01:11:59.315Z,84.80
2022-12-11T01:14:28.594Z,84.20
2022-12-11T01:16:57.727Z,83.50
2022-12-11T01:19:26.685Z,85.30
2022-12-11T01:21:55.692Z,83.40
2022-12-11T01:24:24.786Z,83.70
2022-12-11T01:26:53.974Z,83.80
2022-12-11T01:29:22.914Z,83.00
2022-12-11T01:31:51.859Z,82.70
2022-12-11T01:34:21.014Z,82.30
2022-12-11T01:36:49.903Z,82.40
2022-12-11T01:39:18.858Z,82.10
2022-12-11T01:41:47.992Z,81.90
2022-12-11T01:44:16.884Z,81.40
2022-12-11T01:46:45.802Z,81.00
2022-12-11T01:49:18.239Z,80.60
2022-12-11T01:51:53.073Z,80.10
2022-12-11T01:54:25.123Z,79.80
2022-12-11T01:56:57.318Z,79.50
2022-12-11T01:59:30.803Z,79.20
2022-12-11T02:02:02.924Z,78.90
2022-12-11T02:04:33.367Z,79.00
2022-12-11T02:07:02.381Z,78.60
2022-12-11T02:09:37.626Z,78.60
2022-12-11T02:12:30.707Z,78.40
2022-12-11T02:15:12.515Z,78.20
2022-12-11T02:18:13.529Z,78.20
2022-12-11T02:21:09.017Z,78.00
2022-12-11T02:23:40.945Z,77.90
2022-12-11T02:26:27.997Z,77.80
2022-12-11T02:29:01.285Z,77.20
2022-12-11T02:31:33.894Z,77.30
2022-12-11T02:34:12.313Z,77.00
2022-12-11T02:36:46.600Z,76.70
2022-12-11T02:39:17.698Z,75.60
2022-12-11T02:41:51.413Z,76.20
2022-12-11T02:44:27.899Z,76.40
2022-12-11T02:46:57.548Z,76.30
2022-12-11T02:49:28.181Z,76.30
2022-12-11T02:51:58.250Z,76.10
2022-12-11T02:54:34.618Z,76.30
2022-12-11T02:57:13.643Z,76.40
2022-12-11T02:59:45.761Z,75.90
2022-12-11T03:02:19.916Z,75.50
2022-12-11T03:04:49.381Z,75.80
2022-12-11T03:07:26.970Z,75.70
2022-12-11T03:09:56.166Z,75.50
2022-12-11T03:12:30.471Z,75.40
2022-12-11T03:15:04.459Z,75.50
2022-12-11T03:17:32.928Z,76.10
2022-12-11T03:20:09.681Z,74.00
2022-12-11T03:23:05.113Z,75.30
2022-12-11T03:26:00.123Z,75.10
2022-12-11T03:28:50.749Z,75.20
2022-12-11T03:31:45.039Z,74.60
2022-12-11T03:34:36.288Z,74.60
2022-12-11T03:37:06.750Z,74.70
2022-12-11T03:39:41.793Z,74.30
2022-12-11T03:42:14.113Z,74.90
2022-12-11T03:44:47.564Z,74.90
2022-12-11T03:47:23.939Z,74.80
2022-12-11T03:49:55.252Z,74.60
2022-12-11T03:52:28.346Z,74.70
2022-12-11T03:55:00.906Z,74.60
2022-12-11T03:57:34.058Z,74.60
2022-12-11T04:00:06.023Z,74.00
2022-12-11T04:02:34.944Z,74.30
2022-12-11T04:05:04.121Z,74.40
2022-12-11T04:07:33.105Z,74.70
2022-12-11T04:10:02.708Z,75.00
2022-12-11T04:12:31.696Z,74.90
2022-12-11T04:15:03.284Z,75.00
2022-12-11T04:17:52.621Z,75.00
2022-12-11T04:20:40.654Z,75.10
2022-12-11T04:23:33.690Z,75.40
2022-12-11T04:26:11.448Z,75.40
2022-12-11T04:28:42.113Z,75.40
2022-12-11T04:31:15.909Z,75.40
2022-12-11T04:33:45.013Z,75.20
2022-12-11T04:36:14.957Z,75.40
2022-12-11T04:38:43.844Z,75.60
2022-12-11T04:41:15.153Z,75.60
2022-12-11T04:43:46.259Z,75.60
2022-12-11T04:46:23.485Z,75.30
2022-12-11T04:48:57.301Z,75.10
2022-12-11T04:51:27.110Z,75.10
2022-12-11T04:53:56.262Z,75.10
2022-12-11T04:56:25.245Z,75.00
2022-12-11T04:58:54.170Z,75.20
2022-12-11T05:01:24.668Z,75.00
2022-12-11T05:03:53.678Z,74.80
2022-12-11T05:06:22.725Z,74.70
2022-12-11T05:08:51.744Z,74.30
2022-12-11T05:11:21.149Z,74.60
2022-12-11T05:13:50.159Z,74.60
2022-12-11T05:16:19.267Z,74.10
2022-12-11T05:18:51.122Z,73.90
2022-12-11T05:21:20.294Z,73.70
2022-12-11T05:23:49.261Z,73.70
2022-12-11T05:26:21.031Z,73.50
2022-12-11T05:28:55.260Z,73.60
2022-12-11T05:31:28.707Z,73.40
2022-12-11T05:33:57.729Z,72.60
2022-12-11T05:36:29.738Z,72.30
2022-12-11T05:39:00.974Z,72.20
2022-12-11T05:41:31.975Z,72.40
2022-12-11T05:44:01.071Z,72.30
2022-12-11T05:46:32.245Z,72.10
2022-12-11T05:49:03.495Z,71.70
2022-12-11T05:51:35.381Z,71.50
2022-12-11T05:54:05.313Z,71.60
2022-12-11T05:56:35.831Z,71.00
2022-12-11T05:59:06.372Z,70.80
2022-12-11T06:01:39.088Z,70.70
2022-12-11T06:04:09.734Z,70.70
2022-12-11T06:06:39.073Z,70.50
2022-12-11T06:09:08.842Z,70.30
2022-12-11T06:11:38.067Z,69.80
2022-12-11T06:14:07.132Z,70.00
2022-12-11T06:16:36.129Z,68.40
2022-12-11T06:19:05.434Z,68.90
2022-12-11T06:21:35.530Z,69.30
2022-12-11T06:24:06.769Z,68.50
2022-12-11T06:26:35.674Z,68.10
2022-12-11T06:29:09.045Z,68.00
2022-12-11T06:31:41.796Z,69.50
2022-12-11T06:34:12.827Z,67.50
2022-12-11T06:36:42.043Z,68.60
2022-12-11T06:39:10.903Z,68.50
2022-12-11T06:41:40.315Z,68.10
2022-12-11T06:44:09.233Z,68.50
2022-12-11T06:46:38.203Z,67.80
2022-12-11T06:49:07.259Z,66.70
2022-12-11T06:51:36.197Z,66.20
2022-12-11T06:54:05.195Z,66.10
2022-12-11T06:56:37.421Z,66.30
2022-12-11T06:59:07.626Z,65.90
2022-12-11T07:01:36.757Z,66.60
2022-12-11T07:04:05.730Z,65.80
2022-12-11T07:06:34.640Z,65.90
2022-12-11T07:09:06.407Z,65.90
2022-12-11T07:11:35.354Z,66.20
2022-12-11T07:14:04.488Z,66.50
2022-12-11T07:16:33.852Z,66.20
2022-12-11T07:19:02.778Z,66.50
2022-12-11T07:21:31.716Z,66.50
2022-12-11T07:24:00.718Z,66.40
2022-12-11T07:26:29.806Z,66.80
2022-12-11T07:28:59.978Z,66.60
2022-12-11T07:31:30.805Z,66.20
2022-12-11T07:34:02.666Z,66.20
2022-12-11T07:36:32.220Z,66.00
2022-12-11T07:39:02.149Z,66.20
2022-12-11T07:41:32.790Z,66.20
2022-12-11T07:44:02.459Z,66.30
2022-12-11T07:46:34.030Z,66.10
2022-12-11T07:49:03.920Z,66.00
2022-12-11T07:51:36.614Z,65.90
2022-12-11T07:54:09.158Z,65.80
2022-12-11T07:56:38.374Z,65.80
2022-12-11T07:59:08.325Z,65.60
2022-12-11T08:01:38.976Z,65.50
2022-12-11T08:04:09.602Z,66.00
2022-12-11T08:06:41.289Z,66.00
2022-12-11T08:09:20.915Z,66.10
2022-12-11T08:11:52.221Z,66.30
2022-12-11T08:14:21.493Z,66.30
2022-12-11T08:16:50.541Z,65.70
2022-12-11T08:19:19.854Z,65.50
2022-12-11T08:21:48.896Z,63.80
2022-12-11T08:24:21.354Z,63.20
2022-12-11T08:26:50.558Z,64.10
2022-12-11T08:29:19.585Z,63.90
2022-12-11T08:31:48.747Z,64.40
2022-12-11T08:34:17.667Z,64.60
2022-12-11T08:36:46.735Z,63.20
2022-12-11T08:39:15.978Z,63.70
2022-12-11T08:41:44.879Z,63.80
2022-12-11T08:44:16.990Z,63.90
2022-12-11T08:46:47.856Z,64.00
2022-12-11T08:49:16.809Z,64.10
2022-12-11T08:51:45.727Z,64.20
2022-12-11T08:54:14.699Z,64.50
2022-12-11T08:56:43.562Z,64.60
2022-12-11T08:59:12.613Z,64.60
2022-12-11T09:01:41.619Z,64.60
2022-12-11T09:04:10.625Z,64.50
2022-12-11T09:06:39.561Z,64.60
2022-12-11T09:09:08.631Z,64.50
2022-12-11T09:11:38.985Z,64.60
2022-12-11T09:14:08.930Z,64.80
2022-12-11T09:16:41.288Z,64.70
2022-12-11T09:19:17.523Z,64.60
2022-12-11T09:21:46.569Z,64.60
2022-12-11T09:24:16.662Z,64.50
2022-12-11T09:26:45.745Z,64.80
2022-12-11T09:29:14.989Z,64.60
2022-12-11T09:31:44.369Z,64.70
2022-12-11T09:34:14.797Z,64.50
2022-12-11T09:36:45.303Z,64.70
2022-12-11T09:39:15.270Z,64.60
2022-12-11T09:41:56.941Z,64.60
2022-12-11T09:44:46.964Z,63.80
2022-12-11T09:47:24.811Z,63.80
2022-12-11T09:50:19.469Z,64.20
2022-12-11T09:53:06.528Z,64.30
2022-12-11T09:55:52.337Z,62.90
2022-12-11T09:58:34.620Z,64.30
2022-12-11T10:01:45.023Z,65.00
2022-12-11T10:05:07.465Z,64.20
2022-12-11T10:07:36.480Z,65.10
2022-12-11T10:10:39.842Z,65.60
2022-12-11T10:13:14.769Z,65.50
2022-12-11T10:15:43.724Z,66.00
2022-12-11T10:18:19.551Z,66.00
2022-12-11T10:20:50.404Z,66.20
2022-12-11T10:23:36.723Z,66.40
2022-12-11T10:26:08.511Z,66.50
2022-12-11T10:28:38.213Z,66.40
2022-12-11T10:31:20.858Z,66.60
2022-12-11T10:34:01.799Z,66.70
2022-12-11T10:36:42.423Z,66.80
2022-12-11T10:39:22.772Z,67.10
2022-12-11T10:41:54.317Z,67.10
2022-12-11T10:44:24.383Z,67.30
2022-12-11T10:47:13.037Z,67.70
2022-12-11T10:49:53.038Z,68.10
2022-12-11T10:52:46.143Z,68.20
2022-12-11T10:55:49.481Z,68.50
2022-12-11T10:58:25.289Z,68.30
2022-12-11T11:01:15.687Z,68.40
2022-12-11T11:03:59.387Z,68.50
2022-12-11T11:06:29.027Z,68.70
2022-12-11T11:09:01.516Z,68.60
2022-12-11T11:11:37.934Z,68.70
2022-12-11T11:14:25.043Z,69.00
2022-12-11T11:16:58.578Z,69.10
2022-12-11T11:19:36.382Z,69.00
2022-12-11T11:22:18.362Z,69.70
2022-12-11T11:24:59.659Z,70.00
2022-12-11T11:27:46.732Z,70.10
2022-12-11T11:30:26.433Z,70.10
2022-12-11T11:33:19.980Z,70.00
2022-12-11T11:35:56.207Z,70.20
2022-12-11T11:38:29.444Z,70.40
2022-12-11T11:41:19.534Z,70.30
2022-12-11T11:43:50.413Z,70.70
2022-12-11T11:46:22.088Z,70.60
2022-12-11T11:48:51.052Z,70.70
2022-12-11T11:51:29.112Z,70.80
2022-12-11T11:54:01.950Z,71.00
2022-12-11T11:56:39.471Z,71.20
2022-12-11T11:59:20.372Z,71.30
2022-12-11T12:01:49.347Z,71.50
2022-12-11T12:04:18.438Z,71.70
2022-12-11T12:07:19.838Z,72.80
2022-12-11T12:10:18.525Z,72.20
2022-12-11T12:12:55.560Z,73.00
2022-12-11T12:15:45.345Z,72.40
2022-12-11T12:18:43.914Z,73.20
2022-12-11T12:21:15.722Z,73.10
2022-12-11T12:24:07.836Z,73.10
2022-12-11T12:26:43.301Z,73.20
2022-12-11T12:29:33.574Z,72.90
2022-12-11T12:32:36.235Z,73.00
2022-12-11T12:35:15.581Z,73.70
2022-12-11T12:38:08.913Z,73.20
2022-12-11T12:40:58.442Z,73.20
2022-12-11T12:43:48.450Z,73.80
2022-12-11T12:46:23.867Z,73.80
2022-12-11T12:48:55.541Z,73.60
2022-12-11T12:51:25.309Z,73.60
2022-12-11T12:54:09.133Z,73.80
2022-12-11T12:56:42.200Z,73.80
2022-12-11T12:59:25.591Z,74.00
2022-12-11T13:02:03.564Z,74.30
2022-12-11T13:04:55.944Z,74.10
2022-12-11T13:07:33.754Z,74.30
2022-12-11T13:10:30.633Z,74.10
2022-12-11T13:13:00.497Z,74.30
2022-12-11T13:15:29.413Z,74.20
2022-12-11T13:17:59.393Z,74.30
2022-12-11T13:20:32.089Z,74.20
2022-12-11T13:23:21.663Z,74.30
2022-12-11T13:26:10.890Z,74.40
2022-12-11T13:28:42.705Z,74.70
2022-12-11T13:31:17.739Z,74.40
2022-12-11T13:33:52.442Z,74.60
2022-12-11T13:36:32.512Z,74.50
2022-12-11T13:39:11.958Z,74.50
2022-12-11T13:41:41.705Z,74.60
2022-12-11T13:44:21.366Z,74.60
2022-12-11T13:46:53.378Z,74.50
2022-12-11T13:49:38.390Z,74.40
2022-12-11T13:52:08.979Z,74.70
2022-12-11T13:54:38.260Z,74.70
2022-12-11T13:57:10.005Z,74.70
2022-12-11T13:59:43.071Z,74.80
2022-12-11T14:02:31.901Z,75.00
2022-12-11T14:05:08.034Z,75.50
2022-12-11T14:07:59.083Z,75.10
2022-12-11T14:10:30.166Z,75.20
2022-12-11T14:13:09.596Z,75.20
2022-12-11T14:15:40.562Z,75.00
2022-12-11T14:18:09.587Z,75.20
2022-12-11T14:20:38.650Z,75.50
2022-12-11T14:23:19.818Z,75.50
2022-12-11T14:26:01.330Z,75.60
2022-12-11T14:28:37.220Z,75.80
2022-12-11T14:31:07.993Z,75.80
2022-12-11T14:33:45.454Z,76.70
2022-12-11T14:36:17.191Z,76.00
2022-12-11T14:38:57.242Z,76.00
2022-12-11T14:41:51.589Z,76.30
2022-12-11T14:44:24.422Z,76.50
2022-12-11T14:47:06.362Z,76.70
2022-12-11T14:49:49.551Z,77.00
2022-12-11T14:52:26.834Z,76.90
2022-12-11T14:55:03.270Z,76.90
2022-12-11T14:57:34.954Z,76.90
2022-12-11T15:00:05.461Z,77.00
2022-12-11T15:02:37.798Z,77.00
2022-12-11T15:05:19.770Z,77.00
2022-12-11T15:08:25.743Z,77.20
2022-12-11T15:11:07.481Z,77.30
2022-12-11T15:13:40.754Z,77.00
2022-12-11T15:16:11.320Z,77.00
2022-12-11T15:18:43.944Z,77.10
2022-12-11T15:21:14.459Z,76.80
2022-12-11T15:23:56.162Z,76.70
2022-12-11T15:26:40.203Z,77.00
2022-12-11T15:29:30.606Z,77.10
2022-12-11T15:32:21.756Z,77.40
2022-12-11T15:35:01.066Z,77.10
2022-12-11T15:37:32.684Z,77.10
2022-12-11T15:40:03.073Z,76.90
2022-12-11T15:42:40.844Z,76.90
2022-12-11T15:45:19.048Z,77.00
2022-12-11T15:47:50.086Z,77.00
2022-12-11T15:50:26.682Z,77.00
2022-12-11T15:52:57.074Z,77.10
2022-12-11T15:55:28.764Z,77.00
2022-12-11T15:58:00.763Z,77.20
2022-12-11T16:00:30.321Z,77.30
2022-12-11T16:02:59.886Z,77.20
2022-12-11T16:05:29.289Z,77.30
2022-12-11T16:08:01.379Z,76.80
2022-12-11T16:10:30.856Z,76.90
2022-12-11T16:13:00.665Z,76.40
2022-12-11T16:15:29.884Z,76.30
2022-12-11T16:18:10.634Z,76.00
2022-12-11T16:20:42.264Z,76.00
2022-12-11T16:23:12.353Z,75.80
2022-12-11T16:25:43.071Z,75.80
2022-12-11T16:28:15.154Z,75.90
2022-12-11T16:30:44.948Z,75.80
2022-12-11T16:33:14.750Z,75.70
2022-12-11T16:35:44.333Z,75.50
2022-12-11T16:38:14.761Z,76.00
2022-12-11T16:40:43.729Z,75.90
2022-12-11T16:43:16.784Z,75.80
2022-12-11T16:45:45.956Z,75.70
2022-12-11T16:48:15.115Z,76.00
2022-12-11T16:50:44.027Z,76.00
2022-12-11T16:53:15.672Z,76.50
2022-12-11T16:55:44.597Z,76.40
2022-12-11T16:58:19.122Z,76.50
2022-12-11T17:00:49.609Z,76.40
2022-12-11T17:03:20.164Z,76.50
2022-12-11T17:05:49.106Z,76.50
2022-12-11T17:08:18.081Z,77.00
2022-12-11T17:10:47.237Z,76.70
2022-12-11T17:13:16.301Z,76.80
2022-12-11T17:15:46.431Z,77.00
2022-12-11T17:18:15.473Z,77.00
2022-12-11T17:20:46.182Z,76.80
2022-12-11T17:23:15.172Z,77.00
2022-12-11T17:25:46.033Z,77.10
2022-12-11T17:28:15.089Z,77.00
2022-12-11T17:30:46.454Z,77.00
2022-12-11T17:33:15.730Z,77.30
2022-12-11T17:35:44.903Z,77.60
2022-12-11T17:38:13.880Z,77.50
2022-12-11T17:40:46.241Z,77.70
2022-12-11T17:43:15.421Z,77.70
2022-12-11T17:45:49.469Z,77.90
2022-12-11T17:48:17.946Z,78.00
2022-12-11T17:50:48.603Z,79.70
2022-12-11T17:53:19.251Z,78.00
2022-12-11T17:55:49.041Z,78.00
2022-12-11T17:58:20.788Z,78.00
2022-12-11T18:00:52.684Z,78.60
2022-12-11T18:03:22.257Z,78.30
2022-12-11T18:05:54.561Z,78.80
2022-12-11T18:08:27.242Z,78.40
2022-12-11T18:10:56.663Z,78.60
2022-12-11T18:13:26.451Z,78.70
2022-12-11T18:16:06.842Z,78.70
2022-12-11T18:18:36.552Z,78.70
2022-12-11T18:21:06.028Z,79.00
2022-12-11T18:23:35.487Z,78.80
2022-12-11T18:26:04.481Z,78.80
2022-12-11T18:28:33.646Z,79.10
2022-12-11T18:31:04.637Z,79.20
2022-12-11T18:33:33.636Z,79.50
2022-12-11T18:36:02.519Z,79.40
2022-12-11T18:38:32.759Z,79.30
2022-12-11T18:41:08.673Z,79.50
2022-12-11T18:43:37.843Z,79.30
2022-12-11T18:46:08.729Z,79.70
2022-12-11T18:48:38.105Z,79.90
2022-12-11T18:51:13.307Z,79.90
2022-12-11T18:53:42.797Z,79.90
2022-12-11T18:56:15.485Z,80.50
2022-12-11T18:58:45.331Z,80.00
2022-12-11T19:01:25.565Z,80.10
2022-12-11T19:04:06.512Z,80.40
2022-12-11T19:06:38.192Z,80.50
2022-12-11T19:09:10.038Z,80.70
2022-12-11T19:11:41.927Z,80.30
2022-12-11T19:14:11.860Z,80.30
2022-12-11T19:16:44.289Z,80.40
2022-12-11T19:19:22.300Z,80.50
2022-12-11T19:21:51.620Z,81.30
2022-12-11T19:24:22.764Z,81.10
2022-12-11T19:26:52.519Z,81.10
2022-12-11T19:29:25.265Z,81.10
2022-12-11T19:31:56.221Z,80.80
2022-12-11T19:34:26.220Z,80.90
2022-12-11T19:36:55.172Z,81.00
2022-12-11T19:39:24.257Z,81.10
2022-12-11T19:41:53.245Z,81.20
2022-12-11T19:44:22.609Z,81.30
2022-12-11T19:46:51.723Z,81.30
2022-12-11T19:49:20.956Z,81.20
2022-12-11T19:51:50.221Z,81.40
2022-12-11T19:54:19.511Z,81.30
2022-12-11T19:56:48.424Z,81.20
2022-12-11T19:59:19.150Z,81.10
2022-12-11T20:01:51.514Z,81.50
2022-12-11T20:04:21.056Z,81.60
2022-12-11T20:06:50.224Z,81.60
2022-12-11T20:09:19.351Z,81.70
2022-12-11T20:11:48.961Z,81.80
2022-12-11T20:14:27.978Z,81.90
2022-12-11T20:17:14.233Z,82.10
2022-12-11T20:20:24.623Z,82.20
2022-12-11T20:22:54.796Z,82.40
2022-12-11T20:25:25.252Z,82.10
2022-12-11T20:28:13.044Z,82.20
2022-12-11T20:30:41.989Z,82.30
2022-12-11T20:33:10.899Z,82.10
2022-12-11T20:35:42.585Z,82.00
2022-12-11T20:38:11.625Z,82.00
2022-12-11T20:40:41.070Z,82.20
2022-12-11T20:43:10.016Z,82.10
2022-12-11T20:45:38.990Z,82.40
2022-12-11T20:48:08.111Z,82.30
2022-12-11T20:50:39.259Z,82.40
2022-12-11T20:53:08.253Z,82.40
2022-12-11T20:55:42.283Z,82.50
2022-12-11T20:58:12.279Z,82.50
2022-12-11T21:00:42.056Z,82.50
2022-12-11T21:03:10.979Z,82.60
2022-12-11T21:05:45.690Z,82.50
2022-12-11T21:08:14.956Z,82.40
2022-12-11T21:10:50.259Z,82.70
2022-12-11T21:13:19.173Z,82.60
2022-12-11T21:15:50.846Z,82.80
2022-12-11T21:18:20.515Z,82.80
2022-12-11T21:20:49.521Z,82.90
2022-12-11T21:23:18.471Z,83.10
2022-12-11T21:25:47.442Z,83.10
2022-12-11T21:28:16.366Z,83.20
2022-12-11T21:30:45.392Z,83.30
2022-12-11T21:33:14.365Z,83.50
2022-12-11T21:35:43.402Z,83.90
2022-12-11T21:38:12.405Z,84.00
2022-12-11T21:40:41.588Z,84.00
2022-12-11T21:43:10.767Z,83.70
2022-12-11T21:48:28.731Z,83.90
2022-12-11T21:51:05.332Z,84.00
2022-12-11T21:53:34.490Z,84.20
2022-12-11T21:56:07.624Z,84.10
2022-12-11T21:58:37.248Z,84.00
2022-12-11T22:01:07.828Z,84.50
2022-12-11T22:03:37.146Z,84.50
2022-12-11T22:06:06.531Z,85.10
2022-12-11T22:08:35.488Z,84.70
2022-12-11T22:11:05.156Z,84.50
2022-12-11T22:13:34.179Z,84.80
2022-12-11T22:16:03.396Z,85.30
2022-12-11T22:18:32.425Z,85.30
2022-12-11T22:21:01.339Z,85.00
2022-12-11T22:23:30.295Z,84.90
2022-12-11T22:26:00.000Z,85.60
2022-12-11T22:28:29.102Z,85.00
2022-12-11T22:30:58.099Z,85.20
2022-12-11T22:33:27.253Z,84.30
2022-12-11T22:36:00.848Z,84.10
2022-12-11T22:38:29.772Z,84.20
2022-12-11T22:40:58.822Z,83.80
2022-12-11T22:43:27.767Z,84.00
2022-12-11T22:45:56.769Z,83.60
2022-12-11T22:48:28.426Z,84.10
2022-12-11T22:50:57.661Z,84.30
2022-12-11T22:53:26.815Z,84.90
2022-12-11T22:55:55.735Z,84.60
2022-12-11T22:58:24.680Z,84.20
2022-12-11T23:00:53.984Z,84.00
2022-12-11T23:03:23.088Z,84.20
2022-12-11T23:05:52.136Z,84.10
2022-12-11T23:08:21.140Z,84.20
2022-12-11T23:10:50.257Z,84.10
2022-12-11T23:13:19.236Z,84.20
2022-12-11T23:15:48.162Z,84.20
2022-12-11T23:18:17.175Z,84.30
2022-12-11T23:20:46.306Z,84.10
2022-12-11T23:23:15.248Z,84.20
2022-12-11T23:25:44.243Z,84.40
2022-12-11T23:28:13.296Z,84.50
2022-12-11T23:30:42.422Z,84.70
2022-12-11T23:33:11.431Z,84.70
2022-12-11T23:35:40.404Z,84.70
2022-12-11T23:38:09.609Z,84.50
2022-12-11T23:40:38.850Z,84.60
2022-12-11T23:43:07.934Z,84.60
2022-12-11T23:45:36.889Z,84.50
2022-12-11T23:48:06.084Z,84.90
2022-12-11T23:50:35.088Z,84.80
2022-12-11T23:53:04.006Z,84.80
2022-12-11T23:55:33.182Z,84.70
2022-12-11T23:58:02.509Z,84.60
